createdAt,value
2018-03-02T00:00:39.387Z,1.40
2018-03-02T00:03:06.911Z,1.10
2018-03-02T00:05:34.429Z,1.20
2018-03-02T00:08:02.740Z,1.10
2018-03-02T00:10:30.265Z,1.10
2018-03-02T00:12:58.564Z,1.10
2018-03-02T00:15:26.091Z,1.20
2018-03-02T00:17:54.375Z,1.20
2018-03-02T00:20:22.680Z,1.20
2018-03-02T00:22:50.196Z,1.10
2018-03-02T00:25:17.743Z,1.10
2018-03-02T00:27:45.277Z,1.30
2018-03-02T00:30:12.803Z,1.10
2018-03-02T00:32:41.080Z,1.10
2018-03-02T00:35:09.380Z,1.10
2018-03-02T00:37:36.903Z,1.10
2018-03-02T00:40:05.189Z,1.10
2018-03-02T00:42:33.485Z,1.10
2018-03-02T00:45:01.046Z,1.30
2018-03-02T00:47:28.589Z,0.90
2018-03-02T00:49:56.872Z,0.90
2018-03-02T00:52:25.180Z,0.90
2018-03-02T00:54:52.695Z,1.00
2018-03-02T00:57:21.001Z,0.80
2018-03-02T00:59:48.520Z,1.00
2018-03-02T01:02:16.050Z,1.00
2018-03-02T01:04:43.568Z,1.00
2018-03-02T01:07:11.861Z,0.80
2018-03-02T01:09:39.379Z,0.80
2018-03-02T01:12:06.929Z,1.00
2018-03-02T01:14:34.453Z,0.90
2018-03-02T01:17:01.980Z,1.00
2018-03-02T01:19:30.278Z,0.90
2018-03-02T01:21:57.792Z,0.90
2018-03-02T01:24:25.331Z,0.90
2018-03-02T01:26:52.856Z,1.00
2018-03-02T01:29:20.412Z,0.70
2018-03-02T01:31:47.937Z,0.80
2018-03-02T01:34:15.903Z,0.80
2018-03-02T01:36:43.440Z,0.70
2018-03-02T01:39:10.967Z,0.60
2018-03-02T01:41:38.499Z,0.70
2018-03-02T01:44:06.804Z,0.70
2018-03-02T01:46:34.323Z,0.80
2018-03-02T01:49:01.891Z,0.70
2018-03-02T01:51:41.028Z,0.50
2018-03-02T01:54:09.325Z,0.70
2018-03-02T01:56:36.851Z,0.80
2018-03-02T01:59:04.424Z,0.70
2018-03-02T02:01:32.715Z,0.60
2018-03-02T02:04:01.000Z,0.70
2018-03-02T02:06:28.537Z,0.80
2018-03-02T02:08:56.056Z,0.60
2018-03-02T02:11:23.580Z,0.70
2018-03-02T02:13:51.107Z,0.70
2018-03-02T02:16:18.716Z,0.50
2018-03-02T02:18:46.232Z,0.80
2018-03-02T02:21:13.774Z,0.60
2018-03-02T02:23:41.304Z,0.70
2018-03-02T02:26:09.085Z,0.30
2018-03-02T02:28:36.600Z,0.60
2018-03-02T02:31:04.875Z,0.70
2018-03-02T02:33:32.412Z,0.50
2018-03-02T02:35:59.936Z,0.60
2018-03-02T02:38:27.475Z,0.40
2018-03-02T02:40:55.008Z,0.50
2018-03-02T02:43:23.314Z,0.40
2018-03-02T02:45:50.845Z,0.40
2018-03-02T02:48:19.145Z,0.60
2018-03-02T02:50:46.656Z,0.50
2018-03-02T02:53:14.183Z,0.40
2018-03-02T02:55:41.696Z,0.40
2018-03-02T02:58:09.251Z,0.40
2018-03-02T03:00:36.776Z,0.50
2018-03-02T03:03:04.350Z,0.40
2018-03-02T03:05:31.880Z,0.30
2018-03-02T03:07:59.395Z,0.50
2018-03-02T03:10:26.932Z,0.20
2018-03-02T03:12:54.447Z,0.40
2018-03-02T03:15:21.971Z,0.40
2018-03-02T03:17:50.260Z,0.50
2018-03-02T03:20:18.555Z,0.50
2018-03-02T03:22:46.076Z,0.40
2018-03-02T03:25:13.614Z,0.40
2018-03-02T03:27:41.137Z,0.20
2018-03-02T03:30:08.666Z,0.40
2018-03-02T03:32:36.193Z,0.00
2018-03-02T03:35:03.744Z,0.10
2018-03-02T03:37:31.270Z,0.10
2018-03-02T03:39:59.560Z,0.00
2018-03-02T03:42:27.137Z,0.20
2018-03-02T03:44:54.647Z,0.10
2018-03-02T03:47:22.175Z,0.00
2018-03-02T03:49:49.692Z,0.20
2018-03-02T03:52:17.242Z,0.20
2018-03-02T03:54:45.528Z,0.20
2018-03-02T03:57:13.828Z,0.00
2018-03-02T03:59:41.418Z,0.10
2018-03-02T04:02:08.960Z,0.20
2018-03-02T04:04:36.491Z,0.10
2018-03-02T04:07:04.031Z,0.20
2018-03-02T04:09:32.326Z,0.10
2018-03-02T04:12:00.632Z,0.10
2018-03-02T04:14:28.164Z,0.10
2018-03-02T04:16:55.687Z,0.00
2018-03-02T04:19:23.224Z,0.20
2018-03-02T04:21:50.744Z,0.20
2018-03-02T04:24:18.276Z,0.10
2018-03-02T04:26:45.789Z,0.20
2018-03-02T04:29:13.321Z,0.20
2018-03-02T04:31:40.831Z,0.20
2018-03-02T04:34:08.423Z,0.20
2018-03-02T04:36:35.949Z,0.10
2018-03-02T04:39:04.244Z,0.00
2018-03-02T04:41:31.748Z,0.00
2018-03-02T04:43:59.275Z,-0.10
2018-03-02T04:46:26.804Z,0.10
2018-03-02T04:48:54.324Z,-0.10
2018-03-02T04:51:22.627Z,0.00
2018-03-02T04:53:50.154Z,0.00
2018-03-02T04:56:18.451Z,0.00
2018-03-02T04:58:45.967Z,0.00
2018-03-02T05:01:13.502Z,0.00
2018-03-02T05:03:41.061Z,0.00
2018-03-02T05:06:08.852Z,0.00
2018-03-02T05:08:36.386Z,-0.10
2018-03-02T05:11:03.919Z,0.00
2018-03-02T05:13:31.459Z,-0.30
2018-03-02T05:15:59.000Z,-0.30
2018-03-02T05:18:26.512Z,0.00
2018-03-02T05:20:54.060Z,-0.10
2018-03-02T05:23:21.593Z,0.00
2018-03-02T05:25:49.891Z,-0.20
2018-03-02T05:28:17.417Z,-0.10
2018-03-02T05:30:44.963Z,-0.30
2018-03-02T05:33:12.492Z,0.00
2018-03-02T05:35:40.022Z,-0.30
2018-03-02T05:38:07.582Z,-0.20
2018-03-02T05:40:35.099Z,0.00
2018-03-02T05:43:02.644Z,-0.20
2018-03-02T05:45:30.164Z,-0.20
2018-03-02T05:47:57.698Z,0.00
2018-03-02T05:50:25.214Z,0.00
2018-03-02T05:52:52.739Z,0.10
2018-03-02T05:55:21.015Z,-0.10
2018-03-02T05:57:49.328Z,-0.30
2018-03-02T06:00:16.849Z,0.00
2018-03-02T09:36:09.429Z,3.10
2018-03-02T09:38:36.989Z,3.00
2018-03-02T09:41:05.305Z,2.90
2018-03-02T09:43:32.833Z,2.90
2018-03-02T09:46:00.392Z,3.10
2018-03-02T09:48:27.908Z,3.00
2018-03-02T09:50:55.415Z,3.10
2018-03-02T09:53:22.956Z,3.30
2018-03-02T09:55:51.240Z,3.30
2018-03-02T09:58:19.548Z,3.30
2018-03-02T10:00:47.069Z,3.50
2018-03-02T10:03:14.627Z,3.40
2018-03-02T10:05:42.925Z,3.40
2018-03-02T10:08:10.467Z,3.60
2018-03-02T10:10:38.739Z,3.80
2018-03-02T10:13:07.042Z,3.60
2018-03-02T10:15:34.557Z,3.40
2018-03-02T10:18:02.091Z,3.60
2018-03-02T10:20:29.628Z,3.70
2018-03-02T10:22:57.185Z,3.70
2018-03-02T10:25:24.727Z,3.70
2018-03-02T10:27:53.011Z,3.80
2018-03-02T10:30:21.312Z,3.90
2018-03-02T10:32:48.845Z,4.00
2018-03-02T10:35:17.193Z,3.90
2018-03-02T10:37:44.769Z,4.10
2018-03-02T10:40:13.076Z,4.10
2018-03-02T10:42:40.695Z,4.00
2018-03-02T10:45:08.232Z,4.10
2018-03-02T10:57:31.469Z,4.40
2018-03-02T10:59:59.754Z,4.40
2018-03-02T11:02:28.065Z,4.40
2018-03-02T11:05:01.347Z,4.60
2018-03-02T11:07:28.895Z,4.40
2018-03-02T11:09:57.179Z,4.80
2018-03-02T11:12:24.728Z,4.90
2018-03-02T11:14:52.252Z,4.80
2018-03-02T11:17:19.898Z,4.80
2018-03-02T11:19:47.433Z,5.20
2018-03-02T23:59:47.991Z,2.70
